Terminal Aerodrome Forecast
Issued by NWS Mt. Holly, NJ

Home | Current Version | Previous Version | Text Only | Print | Product List | Glossary On
Versions: 1 2 3 4 5 6 7 8 9 10 11 12 13 14 15 16 17 18 19 20 21 22 23 24 25 26 27 28
000
FTUS41 KPHI 100525
TAFPHL
TAF
KPHL 100525Z 1006/1112 27010KT P6SM BKN045 BKN060
      TEMPO 1006/1008 5SM -SN
     FM100800 28008KT P6SM SCT060 BKN200
     FM101600 28012G20KT P6SM BKN050
     FM102200 29010KT P6SM SCT050=

USA.gov is the U.S. government's official web portal to all federal, state and local government web resources and services.